createdAt,value
2023-05-10T00:00:35.889Z,22.20
2023-05-10T00:05:37.791Z,23.81
2023-05-10T00:10:39.657Z,22.42
2023-05-10T00:15:41.496Z,23.01
2023-05-10T00:20:43.413Z,23.19
2023-05-10T00:25:45.416Z,23.07
2023-05-10T00:30:47.231Z,23.37
2023-05-10T00:35:49.176Z,22.76
2023-05-10T00:40:51.122Z,23.14
2023-05-10T00:46:00.914Z,23.18
2023-05-10T00:51:03.375Z,23.05
2023-05-10T00:56:05.277Z,23.24
2023-05-10T01:01:07.260Z,23.86
2023-05-10T01:06:09.173Z,23.26
2023-05-10T01:11:11.144Z,23.88
2023-05-10T01:16:13.183Z,22.88
2023-05-10T01:21:21.017Z,23.05
2023-05-10T01:26:49.100Z,23.64
2023-05-10T01:32:09.586Z,24.13
2023-05-10T01:37:16.879Z,23.90
2023-05-10T01:42:21.131Z,24.18
2023-05-10T01:47:29.985Z,24.29
2023-05-10T01:52:34.023Z,23.38
2023-05-10T01:57:40.728Z,23.61
2023-05-10T02:02:45.690Z,24.44
2023-05-10T02:07:48.433Z,23.77
2023-05-10T02:12:51.174Z,24.26
2023-05-10T02:17:55.348Z,24.13
2023-05-10T02:22:58.054Z,24.36
2023-05-10T02:28:00.992Z,24.76
2023-05-10T02:33:05.495Z,24.87
2023-05-10T02:38:08.417Z,24.23
2023-05-10T02:43:14.432Z,25.10
2023-05-10T02:48:17.302Z,24.33
2023-05-10T02:53:32.566Z,25.49
2023-05-10T02:58:34.423Z,24.36
2023-05-10T03:03:36.245Z,25.79
2023-05-10T03:08:38.571Z,25.00
2023-05-10T03:13:50.045Z,25.53
2023-05-10T03:18:54.784Z,25.92
2023-05-10T03:24:04.234Z,25.45
2023-05-10T03:29:07.552Z,25.46
2023-05-10T03:34:09.929Z,25.87
2023-05-10T03:39:11.834Z,25.40
2023-05-10T03:44:13.829Z,24.81
2023-05-10T03:49:15.928Z,24.47
2023-05-10T03:54:18.227Z,25.61
2023-05-10T03:59:20.374Z,24.91
2023-05-10T04:04:22.971Z,25.12
2023-05-10T04:09:26.387Z,24.53
2023-05-10T04:14:28.190Z,24.45
2023-05-10T04:19:30.602Z,24.33
2023-05-10T04:24:32.502Z,24.58
2023-05-10T04:29:34.445Z,24.65
2023-05-10T04:34:36.390Z,25.04
2023-05-10T04:39:40.224Z,25.04
2023-05-10T04:44:43.658Z,24.59
2023-05-10T04:49:45.603Z,24.24
2023-05-10T04:54:47.442Z,24.46
2023-05-10T04:59:50.493Z,24.31
2023-05-10T05:04:52.585Z,23.97
2023-05-10T05:09:54.554Z,23.86
2023-05-10T05:14:56.413Z,23.83
2023-05-10T05:19:58.407Z,23.93
2023-05-10T05:25:00.437Z,23.84
2023-05-10T05:30:02.233Z,23.28
2023-05-10T05:35:04.374Z,23.11
2023-05-10T05:40:06.883Z,23.17
2023-05-10T05:45:09.910Z,22.62
2023-05-10T05:50:11.808Z,21.99
2023-05-10T05:55:13.921Z,22.17
2023-05-10T06:00:16.443Z,22.07
2023-05-10T06:05:21.295Z,21.62
2023-05-10T06:10:23.873Z,21.56
2023-05-10T06:15:25.794Z,21.48
2023-05-10T06:20:27.805Z,21.16
2023-05-10T06:25:29.716Z,20.83
2023-05-10T06:30:31.767Z,20.94
2023-05-10T06:35:34.594Z,20.82
2023-05-10T06:40:37.112Z,20.73
2023-05-10T06:45:39.105Z,20.59
2023-05-10T06:50:40.952Z,20.55
2023-05-10T06:55:42.819Z,20.07
2023-05-10T07:00:46.561Z,20.12
2023-05-10T07:05:48.489Z,19.82
2023-05-10T07:10:50.601Z,19.41
2023-05-10T07:15:52.518Z,19.95
2023-05-10T07:20:54.432Z,19.59
2023-05-10T07:25:58.381Z,19.48
2023-05-10T07:31:00.383Z,19.29
2023-05-10T07:36:02.292Z,17.92
2023-05-10T07:41:04.150Z,18.65
2023-05-10T07:46:06.430Z,17.67
2023-05-10T07:51:10.432Z,16.64
2023-05-10T07:56:23.525Z,16.50
2023-05-10T08:01:25.714Z,15.15
2023-05-10T08:06:29.219Z,14.54
2023-05-10T08:11:31.637Z,15.11
2023-05-10T08:16:34.236Z,8.87
2023-05-10T08:21:36.932Z,12.25
2023-05-10T08:26:38.900Z,5.78
2023-05-10T08:31:40.830Z,9.09
2023-05-10T08:36:42.762Z,7.25
2023-05-10T08:41:45.416Z,10.23
2023-05-10T08:46:47.566Z,8.04
2023-05-10T08:51:52.192Z,10.40
2023-05-10T08:56:54.373Z,9.89
2023-05-10T09:01:58.661Z,7.40
2023-05-10T09:07:00.702Z,7.65
2023-05-10T09:12:02.699Z,6.00
2023-05-10T09:17:05.471Z,8.78
2023-05-10T09:22:07.537Z,9.17
2023-05-10T09:27:09.437Z,9.28
2023-05-10T09:32:11.393Z,10.15
2023-05-10T09:37:13.605Z,7.62
2023-05-10T09:42:19.366Z,6.34
2023-05-10T09:47:21.220Z,8.86
2023-05-10T09:52:23.059Z,8.23
2023-05-10T09:57:26.040Z,9.97
2023-05-10T10:02:31.118Z,9.40
2023-05-10T10:07:33.216Z,10.16
2023-05-10T10:12:35.135Z,10.56
2023-05-10T10:17:38.331Z,10.58
2023-05-10T10:22:40.162Z,11.00
2023-05-10T10:27:42.501Z,10.97
2023-05-10T10:33:07.938Z,11.32
2023-05-10T10:38:18.685Z,11.54
2023-05-10T10:43:29.975Z,11.62
2023-05-10T10:48:31.813Z,11.40
2023-05-10T10:53:33.658Z,11.47
2023-05-10T10:58:35.570Z,11.59
2023-05-10T11:03:37.567Z,11.50
2023-05-10T11:08:45.057Z,11.22
2023-05-10T11:13:50.880Z,11.54
2023-05-10T11:18:53.639Z,11.46
2023-05-10T11:23:57.724Z,12.16
2023-05-10T11:29:01.895Z,12.34
2023-05-10T11:34:03.862Z,12.69
2023-05-10T11:39:06.120Z,12.95
2023-05-10T11:44:10.200Z,12.91
2023-05-10T11:49:12.769Z,13.07
2023-05-10T11:54:14.796Z,12.79
2023-05-10T11:59:16.693Z,13.04
2023-05-10T12:04:18.810Z,13.25
2023-05-10T12:09:31.381Z,13.45
2023-05-10T12:14:41.798Z,13.52
2023-05-10T12:19:44.929Z,13.51
2023-05-10T12:24:46.771Z,13.31
2023-05-10T12:29:49.229Z,13.80
2023-05-10T12:34:54.448Z,13.95
2023-05-10T12:39:56.271Z,14.74
2023-05-10T12:44:58.670Z,14.12
2023-05-10T12:50:01.367Z,14.27
2023-05-10T12:55:04.262Z,14.33
2023-05-10T13:00:06.736Z,14.77
2023-05-10T13:05:08.888Z,14.13
2023-05-10T13:10:11.317Z,15.02
2023-05-10T13:15:13.225Z,14.54
2023-05-10T13:20:15.946Z,14.81
2023-05-10T13:25:18.376Z,14.64
2023-05-10T13:30:21.659Z,14.68
2023-05-10T13:35:23.572Z,14.94
2023-05-10T13:40:25.382Z,14.86
2023-05-10T13:45:27.285Z,15.17
2023-05-10T13:50:29.275Z,14.93
2023-05-10T13:55:31.759Z,14.75
2023-05-10T14:00:33.637Z,15.26
2023-05-10T14:05:35.534Z,15.34
2023-05-10T14:10:38.034Z,15.12
2023-05-10T14:15:39.969Z,15.46
2023-05-10T14:20:41.922Z,15.69
2023-05-10T14:25:44.612Z,15.89
2023-05-10T14:30:46.503Z,15.65
2023-05-10T14:35:48.576Z,16.20
2023-05-10T14:40:50.768Z,15.72
2023-05-10T14:45:52.766Z,15.83
2023-05-10T14:50:54.765Z,16.11
2023-05-10T14:55:56.632Z,16.80
2023-05-10T15:00:58.505Z,16.48
2023-05-10T15:06:00.817Z,17.04
2023-05-10T15:11:02.700Z,17.01
2023-05-10T15:16:04.771Z,17.69
2023-05-10T15:21:06.836Z,17.54
2023-05-10T15:26:08.888Z,17.69
2023-05-10T15:31:11.655Z,17.66
2023-05-10T15:36:13.564Z,17.34
2023-05-10T15:41:15.534Z,18.08
2023-05-10T15:46:17.402Z,17.52
2023-05-10T15:51:19.837Z,17.43
2023-05-10T15:56:22.545Z,17.58
2023-05-10T16:01:24.701Z,17.87
2023-05-10T16:06:26.695Z,18.50
2023-05-10T16:11:28.578Z,18.92
2023-05-10T16:16:30.854Z,19.27
2023-05-10T16:21:32.900Z,18.82
2023-05-10T16:26:40.821Z,19.18
2023-05-10T16:31:42.832Z,19.25
2023-05-10T16:36:44.864Z,19.45
2023-05-10T16:41:46.912Z,20.17
2023-05-10T16:46:49.109Z,19.26
2023-05-10T16:51:51.030Z,20.15
2023-05-10T16:56:52.967Z,19.39
2023-05-10T17:01:55.132Z,19.39
2023-05-10T17:06:57.765Z,19.70
2023-05-10T17:11:59.738Z,19.98
2023-05-10T17:17:01.785Z,19.55
2023-05-10T17:22:04.038Z,19.77
2023-05-10T17:27:06.079Z,20.13
2023-05-10T17:32:09.429Z,19.27
2023-05-10T17:37:11.346Z,20.26
2023-05-10T17:42:13.858Z,19.39
2023-05-10T17:47:15.754Z,20.17
2023-05-10T17:52:17.650Z,18.87
2023-05-10T17:57:20.902Z,20.37
2023-05-10T18:02:22.887Z,20.76
2023-05-10T18:07:26.145Z,20.42
2023-05-10T18:12:28.150Z,20.27
2023-05-10T18:17:30.179Z,20.42
2023-05-10T18:22:32.184Z,20.57
2023-05-10T18:27:34.514Z,19.56
2023-05-10T18:32:38.498Z,19.30
2023-05-10T18:37:40.577Z,20.11
2023-05-10T18:42:42.366Z,20.48
2023-05-10T18:47:44.340Z,20.02
2023-05-10T18:52:46.897Z,20.70
2023-05-10T18:57:48.728Z,20.42
2023-05-10T19:02:50.760Z,20.83
2023-05-10T19:07:52.630Z,21.33
2023-05-10T19:12:55.552Z,23.24
2023-05-10T19:17:58.857Z,21.08
2023-05-10T19:23:09.838Z,21.48
2023-05-10T19:28:12.567Z,21.39
2023-05-10T19:33:14.579Z,21.64
2023-05-10T19:38:16.676Z,20.54
2023-05-10T19:43:18.675Z,21.74
2023-05-10T19:48:20.634Z,22.30
2023-05-10T19:53:22.555Z,22.36
2023-05-10T19:58:25.242Z,22.10
2023-05-10T20:03:28.722Z,23.18
2023-05-10T20:08:31.122Z,23.38
2023-05-10T20:13:33.529Z,23.49
2023-05-10T20:18:35.474Z,23.62
2023-05-10T20:23:37.498Z,22.95
2023-05-10T20:28:39.400Z,23.70
2023-05-10T20:33:41.313Z,23.58
2023-05-10T20:38:43.193Z,23.26
2023-05-10T20:43:45.131Z,23.89
2023-05-10T20:48:47.115Z,23.76
2023-05-10T20:53:49.080Z,23.66
2023-05-10T20:58:51.038Z,24.23
2023-05-10T21:03:52.982Z,25.10
2023-05-10T21:08:54.857Z,24.13
2023-05-10T21:13:57.216Z,24.84
2023-05-10T21:18:59.580Z,24.26
2023-05-10T21:24:01.610Z,24.83
2023-05-10T21:29:04.982Z,24.80
2023-05-10T21:34:07.040Z,25.03
2023-05-10T21:39:08.895Z,23.77
2023-05-10T21:44:11.502Z,23.85
2023-05-10T21:49:13.354Z,23.90
2023-05-10T21:54:15.182Z,25.77
2023-05-10T21:59:18.177Z,26.34
2023-05-10T22:04:20.193Z,26.47
2023-05-10T22:09:24.398Z,26.72
2023-05-10T22:14:26.559Z,26.55
2023-05-10T22:19:28.490Z,26.69
2023-05-10T22:24:30.663Z,26.73
2023-05-10T22:29:32.773Z,26.58
2023-05-10T22:34:35.843Z,27.15
2023-05-10T22:39:37.759Z,26.87
2023-05-10T22:44:39.537Z,27.15
2023-05-10T22:49:42.602Z,27.39
2023-05-10T22:54:44.466Z,27.54
2023-05-10T22:59:46.358Z,27.26
2023-05-10T23:04:48.397Z,27.70
2023-05-10T23:09:50.325Z,27.90
2023-05-10T23:14:52.286Z,27.88
2023-05-10T23:19:54.281Z,27.64
2023-05-10T23:24:57.524Z,27.20
2023-05-10T23:29:59.617Z,27.73
2023-05-10T23:35:01.545Z,27.77
2023-05-10T23:40:03.519Z,28.87
2023-05-10T23:45:05.997Z,28.43
2023-05-10T23:50:08.115Z,28.29
2023-05-10T23:55:10.319Z,27.91
